sensor_id;sensor_type;location;lat;lon;timestamp;P1;durP1;ratioP1;P2;durP2;ratioP2
64857;SDS011;51335;51.148;6.950;2023-06-10T00:00:02;11.20;;;4.65;;
64857;SDS011;51335;51.148;6.950;2023-06-10T00:00:33;6.07;;;4.60;;
64857;SDS011;51335;51.148;6.950;2023-06-10T00:01:03;6.25;;;4.72;;
64857;SDS011;51335;51.148;6.950;2023-06-10T00:01:33;7.07;;;5.20;;
64857;SDS011;51335;51.148;6.950;2023-06-10T00:02:04;9.00;;;5.10;;
64857;SDS011;51335;51.148;6.950;2023-06-10T00:02:34;6.82;;;4.60;;
64857;SDS011;51335;51.148;6.950;2023-06-10T00:03:05;6.35;;;4.93;;
64857;SDS011;51335;51.148;6.950;2023-06-10T00:03:35;9.40;;;4.90;;
64857;SDS011;51335;51.148;6.950;2023-06-10T00:04:05;7.63;;;4.88;;
64857;SDS011;51335;51.148;6.950;2023-06-10T00:04:36;8.50;;;5.00;;
64857;SDS011;51335;51.148;6.950;2023-06-10T00:05:06;5.85;;;4.60;;
64857;SDS011;51335;51.148;6.950;2023-06-10T00:05:37;6.70;;;5.13;;
64857;SDS011;51335;51.148;6.950;2023-06-10T00:06:07;5.75;;;4.80;;
64857;SDS011;51335;51.148;6.950;2023-06-10T00:06:37;6.55;;;4.90;;
64857;SDS011;51335;51.148;6.950;2023-06-10T00:07:07;6.72;;;4.85;;
64857;SDS011;51335;51.148;6.950;2023-06-10T00:07:38;5.40;;;4.90;;
64857;SDS011;51335;51.148;6.950;2023-06-10T00:08:08;9.20;;;5.25;;
64857;SDS011;51335;51.148;6.950;2023-06-10T00:08:38;6.88;;;4.85;;
64857;SDS011;51335;51.148;6.950;2023-06-10T00:09:09;6.80;;;4.97;;
64857;SDS011;51335;51.148;6.950;2023-06-10T00:09:39;5.25;;;4.57;;
64857;SDS011;51335;51.148;6.950;2023-06-10T00:10:10;6.80;;;5.10;;
64857;SDS011;51335;51.148;6.950;2023-06-10T00:10:40;7.32;;;4.90;;
64857;SDS011;51335;51.148;6.950;2023-06-10T00:11:10;7.53;;;5.05;;
64857;SDS011;51335;51.148;6.950;2023-06-10T00:11:41;9.85;;;5.50;;
64857;SDS011;51335;51.148;6.950;2023-06-10T00:12:11;5.53;;;4.70;;
64857;SDS011;51335;51.148;6.950;2023-06-10T00:12:41;8.45;;;5.05;;
64857;SDS011;51335;51.148;6.950;2023-06-10T00:13:12;5.88;;;4.75;;
64857;SDS011;51335;51.148;6.950;2023-06-10T00:13:42;7.97;;;5.03;;
64857;SDS011;51335;51.148;6.950;2023-06-10T00:14:12;6.75;;;4.60;;
64857;SDS011;51335;51.148;6.950;2023-06-10T00:14:43;7.93;;;4.63;;
64857;SDS011;51335;51.148;6.950;2023-06-10T00:15:13;7.13;;;4.93;;
64857;SDS011;51335;51.148;6.950;2023-06-10T00:15:43;9.32;;;5.00;;
64857;SDS011;51335;51.148;6.950;2023-06-10T00:16:14;7.10;;;4.70;;
64857;SDS011;51335;51.148;6.950;2023-06-10T00:16:44;7.00;;;4.57;;
64857;SDS011;51335;51.148;6.950;2023-06-10T00:17:14;6.88;;;4.82;;
64857;SDS011;51335;51.148;6.950;2023-06-10T00:17:44;6.03;;;4.63;;
64857;SDS011;51335;51.148;6.950;2023-06-10T00:18:15;6.95;;;4.97;;
64857;SDS011;51335;51.148;6.950;2023-06-10T00:18:45;7.22;;;4.82;;
64857;SDS011;51335;51.148;6.950;2023-06-10T00:19:15;8.20;;;5.07;;
64857;SDS011;51335;51.148;6.950;2023-06-10T00:19:45;9.55;;;5.15;;
64857;SDS011;51335;51.148;6.950;2023-06-10T00:20:16;6.93;;;5.03;;
64857;SDS011;51335;51.148;6.950;2023-06-10T00:20:46;7.10;;;4.70;;
64857;SDS011;51335;51.148;6.950;2023-06-10T00:21:16;5.70;;;4.85;;
64857;SDS011;51335;51.148;6.950;2023-06-10T00:21:47;7.30;;;5.22;;
64857;SDS011;51335;51.148;6.950;2023-06-10T00:22:17;8.00;;;4.82;;
64857;SDS011;51335;51.148;6.950;2023-06-10T00:22:47;12.40;;;4.90;;
64857;SDS011;51335;51.148;6.950;2023-06-10T00:23:18;6.20;;;4.85;;
64857;SDS011;51335;51.148;6.950;2023-06-10T00:23:48;5.65;;;4.93;;
64857;SDS011;51335;51.148;6.950;2023-06-10T00:24:18;7.45;;;5.00;;
64857;SDS011;51335;51.148;6.950;2023-06-10T00:24:48;5.55;;;4.68;;
64857;SDS011;51335;51.148;6.950;2023-06-10T00:25:19;8.73;;;5.03;;
64857;SDS011;51335;51.148;6.950;2023-06-10T00:25:49;7.57;;;4.88;;
64857;SDS011;51335;51.148;6.950;2023-06-10T00:26:19;7.30;;;4.97;;
64857;SDS011;51335;51.148;6.950;2023-06-10T00:26:50;7.03;;;4.78;;
64857;SDS011;51335;51.148;6.950;2023-06-10T00:27:20;7.78;;;5.03;;
64857;SDS011;51335;51.148;6.950;2023-06-10T00:27:50;6.90;;;4.72;;
64857;SDS011;51335;51.148;6.950;2023-06-10T00:28:20;5.55;;;4.72;;
64857;SDS011;51335;51.148;6.950;2023-06-10T00:28:51;8.50;;;5.35;;
64857;SDS011;51335;51.148;6.950;2023-06-10T00:29:21;6.35;;;4.85;;
64857;SDS011;51335;51.148;6.950;2023-06-10T00:29:51;6.25;;;4.70;;
64857;SDS011;51335;51.148;6.950;2023-06-10T00:30:21;6.97;;;4.85;;
64857;SDS011;51335;51.148;6.950;2023-06-10T00:30:52;9.10;;;5.00;;
64857;SDS011;51335;51.148;6.950;2023-06-10T00:31:22;8.20;;;4.88;;
64857;SDS011;51335;51.148;6.950;2023-06-10T00:31:52;8.80;;;5.05;;
64857;SDS011;51335;51.148;6.950;2023-06-10T00:32:22;7.88;;;4.60;;
64857;SDS011;51335;51.148;6.950;2023-06-10T00:32:53;6.35;;;4.85;;
64857;SDS011;51335;51.148;6.950;2023-06-10T00:33:23;8.07;;;4.85;;
64857;SDS011;51335;51.148;6.950;2023-06-10T00:33:53;9.23;;;5.20;;
64857;SDS011;51335;51.148;6.950;2023-06-10T00:34:24;8.30;;;5.07;;
64857;SDS011;51335;51.148;6.950;2023-06-10T00:34:54;7.20;;;4.65;;
64857;SDS011;51335;51.148;6.950;2023-06-10T00:35:24;8.52;;;4.93;;
64857;SDS011;51335;51.148;6.950;2023-06-10T00:35:54;8.57;;;4.63;;
64857;SDS011;51335;51.148;6.950;2023-06-10T00:36:25;9.48;;;4.90;;
64857;SDS011;51335;51.148;6.950;2023-06-10T00:36:55;8.80;;;5.00;;
64857;SDS011;51335;51.148;6.950;2023-06-10T00:37:25;7.10;;;4.75;;
64857;SDS011;51335;51.148;6.950;2023-06-10T00:37:55;12.10;;;5.22;;
64857;SDS011;51335;51.148;6.950;2023-06-10T00:38:26;5.50;;;5.00;;
64857;SDS011;51335;51.148;6.950;2023-06-10T00:38:56;7.53;;;5.03;;
64857;SDS011;51335;51.148;6.950;2023-06-10T00:39:27;8.02;;;4.97;;
64857;SDS011;51335;51.148;6.950;2023-06-10T00:39:57;7.65;;;5.28;;
64857;SDS011;51335;51.148;6.950;2023-06-10T00:40:27;6.65;;;4.68;;
64857;SDS011;51335;51.148;6.950;2023-06-10T00:40:58;8.23;;;5.05;;
64857;SDS011;51335;51.148;6.950;2023-06-10T00:41:28;6.20;;;4.90;;
64857;SDS011;51335;51.148;6.950;2023-06-10T00:41:58;7.63;;;5.15;;
64857;SDS011;51335;51.148;6.950;2023-06-10T00:42:28;10.43;;;4.80;;
64857;SDS011;51335;51.148;6.950;2023-06-10T00:42:59;7.32;;;4.78;;
64857;SDS011;51335;51.148;6.950;2023-06-10T00:43:29;10.15;;;4.80;;
64857;SDS011;51335;51.148;6.950;2023-06-10T00:43:59;9.02;;;4.90;;
64857;SDS011;51335;51.148;6.950;2023-06-10T00:44:29;9.98;;;5.10;;
64857;SDS011;51335;51.148;6.950;2023-06-10T00:45:00;10.57;;;4.65;;
64857;SDS011;51335;51.148;6.950;2023-06-10T00:45:31;9.05;;;5.30;;
64857;SDS011;51335;51.148;6.950;2023-06-10T00:46:01;5.88;;;4.85;;
64857;SDS011;51335;51.148;6.950;2023-06-10T00:46:31;8.25;;;4.43;;
64857;SDS011;51335;51.148;6.950;2023-06-10T00:47:02;9.50;;;4.93;;
64857;SDS011;51335;51.148;6.950;2023-06-10T00:47:33;6.20;;;5.15;;
64857;SDS011;51335;51.148;6.950;2023-06-10T00:48:04;5.68;;;4.82;;
64857;SDS011;51335;51.148;6.950;2023-06-10T00:48:35;7.93;;;5.03;;
64857;SDS011;51335;51.148;6.950;2023-06-10T00:49:05;6.22;;;4.72;;
64857;SDS011;51335;51.148;6.950;2023-06-10T00:49:35;6.85;;;4.63;;
64857;SDS011;51335;51.148;6.950;2023-06-10T00:50:06;6.97;;;5.30;;
64857;SDS011;51335;51.148;6.950;2023-06-10T00:50:36;7.03;;;4.90;;
64857;SDS011;51335;51.148;6.950;2023-06-10T00:51:07;6.75;;;4.93;;
64857;SDS011;51335;51.148;6.950;2023-06-10T00:51:38;6.18;;;5.05;;
64857;SDS011;51335;51.148;6.950;2023-06-10T00:52:08;7.65;;;5.32;;
64857;SDS011;51335;51.148;6.950;2023-06-10T00:52:39;7.15;;;5.18;;
64857;SDS011;51335;51.148;6.950;2023-06-10T00:53:10;6.82;;;4.57;;
64857;SDS011;51335;51.148;6.950;2023-06-10T00:53:41;6.70;;;4.80;;
64857;SDS011;51335;51.148;6.950;2023-06-10T00:54:11;9.43;;;5.18;;
64857;SDS011;51335;51.148;6.950;2023-06-10T00:54:41;8.35;;;4.75;;
64857;SDS011;51335;51.148;6.950;2023-06-10T00:55:12;7.70;;;5.00;;
64857;SDS011;51335;51.148;6.950;2023-06-10T00:55:42;9.30;;;5.70;;
64857;SDS011;51335;51.148;6.950;2023-06-10T00:56:13;9.18;;;5.28;;
64857;SDS011;51335;51.148;6.950;2023-06-10T00:56:44;6.57;;;5.00;;
64857;SDS011;51335;51.148;6.950;2023-06-10T00:57:14;5.90;;;4.80;;
64857;SDS011;51335;51.148;6.950;2023-06-10T00:57:45;6.07;;;4.65;;
64857;SDS011;51335;51.148;6.950;2023-06-10T00:58:16;6.32;;;4.65;;
64857;SDS011;51335;51.148;6.950;2023-06-10T00:58:47;7.35;;;4.80;;
64857;SDS011;51335;51.148;6.950;2023-06-10T00:59:17;6.82;;;5.15;;
64857;SDS011;51335;51.148;6.950;2023-06-10T00:59:48;8.65;;;5.10;;
64857;SDS011;51335;51.148;6.950;2023-06-10T01:00:19;5.53;;;4.70;;
64857;SDS011;51335;51.148;6.950;2023-06-10T01:00:49;6.95;;;4.88;;
64857;SDS011;51335;51.148;6.950;2023-06-10T01:01:19;7.80;;;5.35;;
64857;SDS011;51335;51.148;6.950;2023-06-10T01:01:50;6.28;;;4.75;;
64857;SDS011;51335;51.148;6.950;2023-06-10T01:02:20;7.80;;;5.40;;
64857;SDS011;51335;51.148;6.950;2023-06-10T01:02:51;10.00;;;5.15;;
64857;SDS011;51335;51.148;6.950;2023-06-10T01:03:21;8.27;;;5.43;;
64857;SDS011;51335;51.148;6.950;2023-06-10T01:03:52;9.48;;;4.55;;
64857;SDS011;51335;51.148;6.950;2023-06-10T01:04:22;7.47;;;5.00;;
64857;SDS011;51335;51.148;6.950;2023-06-10T01:04:52;6.07;;;5.20;;
64857;SDS011;51335;51.148;6.950;2023-06-10T01:05:23;6.30;;;5.13;;
64857;SDS011;51335;51.148;6.950;2023-06-10T01:05:57;6.78;;;4.93;;
64857;SDS011;51335;51.148;6.950;2023-06-10T01:09:21;6.25;;;5.10;;
64857;SDS011;51335;51.148;6.950;2023-06-10T01:09:59;8.32;;;5.40;;
64857;SDS011;51335;51.148;6.950;2023-06-10T01:10:36;10.05;;;4.88;;
64857;SDS011;51335;51.148;6.950;2023-06-10T01:11:17;6.97;;;4.63;;
64857;SDS011;51335;51.148;6.950;2023-06-10T01:12:01;7.78;;;5.00;;
64857;SDS011;51335;51.148;6.950;2023-06-10T01:12:58;8.65;;;5.00;;
64857;SDS011;51335;51.148;6.950;2023-06-10T01:13:30;9.00;;;5.40;;
64857;SDS011;51335;51.148;6.950;2023-06-10T01:14:00;6.70;;;4.90;;
64857;SDS011;51335;51.148;6.950;2023-06-10T01:14:32;6.97;;;4.88;;
64857;SDS011;51335;51.148;6.950;2023-06-10T01:15:02;7.88;;;5.25;;
64857;SDS011;51335;51.148;6.950;2023-06-10T01:15:33;10.32;;;5.10;;
64857;SDS011;51335;51.148;6.950;2023-06-10T01:16:04;6.38;;;5.00;;
64857;SDS011;51335;51.148;6.950;2023-06-10T01:16:35;6.90;;;4.78;;
64857;SDS011;51335;51.148;6.950;2023-06-10T01:17:06;7.88;;;5.55;;
64857;SDS011;51335;51.148;6.950;2023-06-10T01:17:53;7.45;;;5.28;;
64857;SDS011;51335;51.148;6.950;2023-06-10T01:18:30;10.27;;;5.72;;
64857;SDS011;51335;51.148;6.950;2023-06-10T01:19:00;9.43;;;5.05;;
64857;SDS011;51335;51.148;6.950;2023-06-10T01:19:31;7.68;;;4.88;;
64857;SDS011;51335;51.148;6.950;2023-06-10T01:20:02;6.43;;;5.07;;
64857;SDS011;51335;51.148;6.950;2023-06-10T01:20:32;6.88;;;4.95;;
64857;SDS011;51335;51.148;6.950;2023-06-10T01:21:03;7.70;;;4.82;;
64857;SDS011;51335;51.148;6.950;2023-06-10T01:21:33;7.75;;;4.80;;
64857;SDS011;51335;51.148;6.950;2023-06-10T01:22:03;8.82;;;5.35;;
64857;SDS011;51335;51.148;6.950;2023-06-10T01:22:34;6.57;;;5.30;;
64857;SDS011;51335;51.148;6.950;2023-06-10T01:23:04;8.48;;;5.13;;
64857;SDS011;51335;51.148;6.950;2023-06-10T01:23:34;8.23;;;5.03;;
64857;SDS011;51335;51.148;6.950;2023-06-10T01:24:05;8.13;;;5.07;;
64857;SDS011;51335;51.148;6.950;2023-06-10T01:24:36;9.52;;;5.43;;
64857;SDS011;51335;51.148;6.950;2023-06-10T01:25:07;6.35;;;4.95;;
64857;SDS011;51335;51.148;6.950;2023-06-10T01:25:38;6.57;;;4.63;;
64857;SDS011;51335;51.148;6.950;2023-06-10T01:26:11;5.57;;;5.00;;
64857;SDS011;51335;51.148;6.950;2023-06-10T01:26:42;9.50;;;5.18;;
64857;SDS011;51335;51.148;6.950;2023-06-10T01:27:13;9.07;;;4.93;;
64857;SDS011;51335;51.148;6.950;2023-06-10T01:27:49;7.50;;;5.20;;
64857;SDS011;51335;51.148;6.950;2023-06-10T01:29:18;6.38;;;4.90;;
64857;SDS011;51335;51.148;6.950;2023-06-10T01:30:07;9.18;;;5.32;;
64857;SDS011;51335;51.148;6.950;2023-06-10T01:32:11;7.00;;;5.05;;
64857;SDS011;51335;51.148;6.950;2023-06-10T01:32:45;7.75;;;4.95;;
64857;SDS011;51335;51.148;6.950;2023-06-10T01:33:23;6.20;;;5.10;;
64857;SDS011;51335;51.148;6.950;2023-06-10T01:33:57;8.18;;;5.15;;
64857;SDS011;51335;51.148;6.950;2023-06-10T01:34:28;6.60;;;5.00;;
64857;SDS011;51335;51.148;6.950;2023-06-10T01:34:59;7.80;;;5.25;;
64857;SDS011;51335;51.148;6.950;2023-06-10T01:35:32;6.63;;;5.43;;
64857;SDS011;51335;51.148;6.950;2023-06-10T01:36:06;7.75;;;4.57;;
64857;SDS011;51335;51.148;6.950;2023-06-10T01:36:37;6.97;;;5.30;;
64857;SDS011;51335;51.148;6.950;2023-06-10T01:37:11;6.82;;;5.07;;
64857;SDS011;51335;51.148;6.950;2023-06-10T01:37:46;8.40;;;5.57;;
64857;SDS011;51335;51.148;6.950;2023-06-10T01:38:17;6.78;;;5.25;;
64857;SDS011;51335;51.148;6.950;2023-06-10T01:38:50;5.90;;;5.03;;
64857;SDS011;51335;51.148;6.950;2023-06-10T01:39:23;8.23;;;5.18;;
64857;SDS011;51335;51.148;6.950;2023-06-10T01:39:55;10.73;;;5.43;;
64857;SDS011;51335;51.148;6.950;2023-06-10T01:40:27;6.38;;;5.30;;
64857;SDS011;51335;51.148;6.950;2023-06-10T01:40:59;6.82;;;5.18;;
64857;SDS011;51335;51.148;6.950;2023-06-10T01:41:30;6.68;;;5.07;;
64857;SDS011;51335;51.148;6.950;2023-06-10T01:42:01;8.23;;;5.03;;
64857;SDS011;51335;51.148;6.950;2023-06-10T01:42:32;10.45;;;5.50;;
64857;SDS011;51335;51.148;6.950;2023-06-10T01:43:03;6.57;;;5.20;;
64857;SDS011;51335;51.148;6.950;2023-06-10T01:43:34;10.73;;;5.65;;
64857;SDS011;51335;51.148;6.950;2023-06-10T01:44:04;7.13;;;5.10;;
64857;SDS011;51335;51.148;6.950;2023-06-10T01:44:34;6.78;;;4.80;;
64857;SDS011;51335;51.148;6.950;2023-06-10T01:45:05;6.93;;;4.93;;
64857;SDS011;51335;51.148;6.950;2023-06-10T01:45:36;6.05;;;5.28;;
64857;SDS011;51335;51.148;6.950;2023-06-10T01:46:06;6.07;;;5.03;;
64857;SDS011;51335;51.148;6.950;2023-06-10T01:46:36;10.23;;;5.85;;
64857;SDS011;51335;51.148;6.950;2023-06-10T01:47:07;6.18;;;5.32;;
64857;SDS011;51335;51.148;6.950;2023-06-10T01:47:38;9.07;;;5.30;;
64857;SDS011;51335;51.148;6.950;2023-06-10T01:48:08;8.15;;;5.53;;
64857;SDS011;51335;51.148;6.950;2023-06-10T01:48:38;8.23;;;5.75;;
64857;SDS011;51335;51.148;6.950;2023-06-10T01:49:09;7.05;;;5.30;;
64857;SDS011;51335;51.148;6.950;2023-06-10T01:49:39;7.28;;;5.40;;
64857;SDS011;51335;51.148;6.950;2023-06-10T01:50:09;8.70;;;5.60;;
64857;SDS011;51335;51.148;6.950;2023-06-10T01:50:40;9.80;;;5.35;;
64857;SDS011;51335;51.148;6.950;2023-06-10T01:51:10;7.07;;;5.50;;
64857;SDS011;51335;51.148;6.950;2023-06-10T01:51:40;8.25;;;5.25;;
64857;SDS011;51335;51.148;6.950;2023-06-10T01:52:11;8.65;;;5.40;;
64857;SDS011;51335;51.148;6.950;2023-06-10T01:52:41;6.55;;;5.30;;
64857;SDS011;51335;51.148;6.950;2023-06-10T01:53:11;6.97;;;5.72;;
64857;SDS011;51335;51.148;6.950;2023-06-10T01:53:42;8.10;;;5.95;;
64857;SDS011;51335;51.148;6.950;2023-06-10T01:54:12;8.40;;;5.68;;
64857;SDS011;51335;51.148;6.950;2023-06-10T01:54:42;7.10;;;5.80;;
64857;SDS011;51335;51.148;6.950;2023-06-10T01:55:13;9.35;;;5.43;;
64857;SDS011;51335;51.148;6.950;2023-06-10T01:55:43;8.63;;;5.70;;
64857;SDS011;51335;51.148;6.950;2023-06-10T01:56:13;7.30;;;5.78;;
64857;SDS011;51335;51.148;6.950;2023-06-10T01:56:43;7.05;;;5.28;;
64857;SDS011;51335;51.148;6.950;2023-06-10T01:57:14;9.32;;;5.63;;
64857;SDS011;51335;51.148;6.950;2023-06-10T01:57:45;6.57;;;5.50;;
64857;SDS011;51335;51.148;6.950;2023-06-10T01:58:15;6.07;;;5.35;;
64857;SDS011;51335;51.148;6.950;2023-06-10T01:58:45;6.10;;;4.90;;
64857;SDS011;51335;51.148;6.950;2023-06-10T01:59:16;7.10;;;5.15;;
64857;SDS011;51335;51.148;6.950;2023-06-10T01:59:46;6.07;;;5.47;;
64857;SDS011;51335;51.148;6.950;2023-06-10T02:00:16;7.35;;;5.53;;
64857;SDS011;51335;51.148;6.950;2023-06-10T02:00:47;8.88;;;5.60;;
64857;SDS011;51335;51.148;6.950;2023-06-10T02:01:17;8.43;;;5.70;;
64857;SDS011;51335;51.148;6.950;2023-06-10T02:01:47;8.23;;;5.35;;
64857;SDS011;51335;51.148;6.950;2023-06-10T02:02:18;6.57;;;5.45;;
64857;SDS011;51335;51.148;6.950;2023-06-10T02:02:48;8.70;;;6.03;;
64857;SDS011;51335;51.148;6.950;2023-06-10T02:03:18;9.07;;;6.25;;
64857;SDS011;51335;51.148;6.950;2023-06-10T02:03:48;7.55;;;5.88;;
64857;SDS011;51335;51.148;6.950;2023-06-10T02:04:19;6.95;;;5.43;;
64857;SDS011;51335;51.148;6.950;2023-06-10T02:04:49;9.23;;;6.10;;
64857;SDS011;51335;51.148;6.950;2023-06-10T02:05:19;8.05;;;5.40;;
64857;SDS011;51335;51.148;6.950;2023-06-10T02:05:49;8.60;;;5.50;;
64857;SDS011;51335;51.148;6.950;2023-06-10T02:06:20;9.20;;;5.75;;
64857;SDS011;51335;51.148;6.950;2023-06-10T02:06:50;8.02;;;5.40;;
64857;SDS011;51335;51.148;6.950;2023-06-10T02:07:20;8.45;;;5.90;;
64857;SDS011;51335;51.148;6.950;2023-06-10T02:07:50;8.13;;;5.78;;
64857;SDS011;51335;51.148;6.950;2023-06-10T02:08:21;10.20;;;5.78;;
64857;SDS011;51335;51.148;6.950;2023-06-10T02:08:51;8.40;;;5.65;;
64857;SDS011;51335;51.148;6.950;2023-06-10T02:09:21;8.35;;;5.55;;
64857;SDS011;51335;51.148;6.950;2023-06-10T02:09:52;9.75;;;5.97;;
64857;SDS011;51335;51.148;6.950;2023-06-10T02:10:22;8.65;;;5.35;;
64857;SDS011;51335;51.148;6.950;2023-06-10T02:10:52;6.40;;;5.40;;
64857;SDS011;51335;51.148;6.950;2023-06-10T02:11:23;7.75;;;5.70;;
64857;SDS011;51335;51.148;6.950;2023-06-10T02:11:53;7.03;;;5.63;;
64857;SDS011;51335;51.148;6.950;2023-06-10T02:12:23;9.02;;;5.65;;
64857;SDS011;51335;51.148;6.950;2023-06-10T02:12:54;8.15;;;5.28;;
64857;SDS011;51335;51.148;6.950;2023-06-10T02:13:24;7.88;;;5.63;;
64857;SDS011;51335;51.148;6.950;2023-06-10T02:13:54;7.88;;;5.93;;
64857;SDS011;51335;51.148;6.950;2023-06-10T02:14:24;7.82;;;5.82;;
64857;SDS011;51335;51.148;6.950;2023-06-10T02:14:55;8.82;;;5.70;;
64857;SDS011;51335;51.148;6.950;2023-06-10T02:15:25;7.57;;;5.38;;
64857;SDS011;51335;51.148;6.950;2023-06-10T02:15:55;8.50;;;5.70;;
64857;SDS011;51335;51.148;6.950;2023-06-10T02:16:25;8.27;;;5.65;;
64857;SDS011;51335;51.148;6.950;2023-06-10T02:16:56;8.57;;;5.50;;
64857;SDS011;51335;51.148;6.950;2023-06-10T02:17:26;8.73;;;5.80;;
64857;SDS011;51335;51.148;6.950;2023-06-10T02:17:56;6.10;;;5.43;;
64857;SDS011;51335;51.148;6.950;2023-06-10T02:18:27;7.55;;;5.78;;
64857;SDS011;51335;51.148;6.950;2023-06-10T02:18:57;8.00;;;5.95;;
64857;SDS011;51335;51.148;6.950;2023-06-10T02:19:28;8.25;;;5.90;;
64857;SDS011;51335;51.148;6.950;2023-06-10T02:19:58;8.80;;;6.03;;
64857;SDS011;51335;51.148;6.950;2023-06-10T02:20:28;7.88;;;6.00;;
64857;SDS011;51335;51.148;6.950;2023-06-10T02:20:59;7.18;;;5.50;;
64857;SDS011;51335;51.148;6.950;2023-06-10T02:21:29;7.30;;;5.63;;
64857;SDS011;51335;51.148;6.950;2023-06-10T02:21:59;9.30;;;5.93;;
64857;SDS011;51335;51.148;6.950;2023-06-10T02:22:29;8.93;;;6.10;;
64857;SDS011;51335;51.148;6.950;2023-06-10T02:23:00;8.55;;;5.20;;
64857;SDS011;51335;51.148;6.950;2023-06-10T02:23:30;7.45;;;6.00;;
64857;SDS011;51335;51.148;6.950;2023-06-10T02:24:00;7.22;;;6.00;;
64857;SDS011;51335;51.148;6.950;2023-06-10T02:24:30;9.27;;;6.63;;
64857;SDS011;51335;51.148;6.950;2023-06-10T02:25:01;6.03;;;5.45;;
64857;SDS011;51335;51.148;6.950;2023-06-10T02:25:31;7.38;;;5.90;;
64857;SDS011;51335;51.148;6.950;2023-06-10T02:26:01;9.13;;;5.80;;
64857;SDS011;51335;51.148;6.950;2023-06-10T02:26:32;8.07;;;5.45;;
64857;SDS011;51335;51.148;6.950;2023-06-10T02:27:02;8.25;;;5.60;;
64857;SDS011;51335;51.148;6.950;2023-06-10T02:27:33;8.07;;;5.65;;
64857;SDS011;51335;51.148;6.950;2023-06-10T02:28:04;8.20;;;5.65;;
64857;SDS011;51335;51.148;6.950;2023-06-10T02:28:34;7.75;;;5.90;;
64857;SDS011;51335;51.148;6.950;2023-06-10T02:29:04;8.40;;;5.70;;
64857;SDS011;51335;51.148;6.950;2023-06-10T02:29:35;7.72;;;5.90;;
64857;SDS011;51335;51.148;6.950;2023-06-10T02:30:05;8.30;;;5.90;;
64857;SDS011;51335;51.148;6.950;2023-06-10T02:30:38;7.20;;;5.90;;
64857;SDS011;51335;51.148;6.950;2023-06-10T02:31:10;7.30;;;5.90;;
64857;SDS011;51335;51.148;6.950;2023-06-10T02:31:41;6.75;;;5.90;;
64857;SDS011;51335;51.148;6.950;2023-06-10T02:32:11;10.05;;;6.13;;
64857;SDS011;51335;51.148;6.950;2023-06-10T02:32:41;7.38;;;5.68;;
64857;SDS011;51335;51.148;6.950;2023-06-10T02:33:12;8.32;;;5.75;;
64857;SDS011;51335;51.148;6.950;2023-06-10T02:33:42;9.20;;;6.05;;
64857;SDS011;51335;51.148;6.950;2023-06-10T02:34:12;7.00;;;5.88;;
64857;SDS011;51335;51.148;6.950;2023-06-10T02:34:43;7.68;;;5.75;;
64857;SDS011;51335;51.148;6.950;2023-06-10T02:35:16;7.25;;;5.95;;
64857;SDS011;51335;51.148;6.950;2023-06-10T02:35:46;8.70;;;6.07;;
64857;SDS011;51335;51.148;6.950;2023-06-10T02:36:17;6.68;;;5.90;;
64857;SDS011;51335;51.148;6.950;2023-06-10T02:36:47;9.30;;;5.70;;
64857;SDS011;51335;51.148;6.950;2023-06-10T02:37:17;6.78;;;5.60;;
64857;SDS011;51335;51.148;6.950;2023-06-10T02:37:50;7.13;;;5.93;;
64857;SDS011;51335;51.148;6.950;2023-06-10T02:38:20;8.70;;;6.18;;
64857;SDS011;51335;51.148;6.950;2023-06-10T02:38:50;8.48;;;6.07;;
64857;SDS011;51335;51.148;6.950;2023-06-10T02:39:21;8.55;;;5.90;;
64857;SDS011;51335;51.148;6.950;2023-06-10T02:39:52;6.80;;;5.93;;
64857;SDS011;51335;51.148;6.950;2023-06-10T02:40:22;7.60;;;5.93;;
64857;SDS011;51335;51.148;6.950;2023-06-10T02:40:52;9.18;;;6.00;;
64857;SDS011;51335;51.148;6.950;2023-06-10T02:41:22;7.72;;;6.10;;
64857;SDS011;51335;51.148;6.950;2023-06-10T02:41:53;7.40;;;5.70;;
64857;SDS011;51335;51.148;6.950;2023-06-10T02:42:23;8.25;;;5.70;;
64857;SDS011;51335;51.148;6.950;2023-06-10T02:42:53;7.65;;;6.30;;
64857;SDS011;51335;51.148;6.950;2023-06-10T02:43:23;8.75;;;6.18;;
64857;SDS011;51335;51.148;6.950;2023-06-10T02:43:54;7.00;;;6.20;;
64857;SDS011;51335;51.148;6.950;2023-06-10T02:44:24;9.82;;;6.38;;
64857;SDS011;51335;51.148;6.950;2023-06-10T02:44:55;7.47;;;6.20;;
64857;SDS011;51335;51.148;6.950;2023-06-10T02:45:25;8.77;;;6.00;;
64857;SDS011;51335;51.148;6.950;2023-06-10T02:45:55;7.85;;;6.07;;
64857;SDS011;51335;51.148;6.950;2023-06-10T02:46:26;7.25;;;6.28;;
64857;SDS011;51335;51.148;6.950;2023-06-10T02:46:56;10.73;;;6.68;;
64857;SDS011;51335;51.148;6.950;2023-06-10T02:47:26;7.53;;;6.22;;
64857;SDS011;51335;51.148;6.950;2023-06-10T02:47:56;8.32;;;6.35;;
64857;SDS011;51335;51.148;6.950;2023-06-10T02:48:27;8.30;;;6.13;;
64857;SDS011;51335;51.148;6.950;2023-06-10T02:48:57;8.60;;;6.30;;
64857;SDS011;51335;51.148;6.950;2023-06-10T02:49:28;7.90;;;6.18;;
64857;SDS011;51335;51.148;6.950;2023-06-10T02:49:58;9.10;;;7.03;;
64857;SDS011;51335;51.148;6.950;2023-06-10T02:50:28;7.90;;;6.47;;
64857;SDS011;51335;51.148;6.950;2023-06-10T02:50:58;8.35;;;6.10;;
64857;SDS011;51335;51.148;6.950;2023-06-10T02:51:29;9.43;;;6.60;;
64857;SDS011;51335;51.148;6.950;2023-06-10T02:51:59;9.32;;;6.43;;
64857;SDS011;51335;51.148;6.950;2023-06-10T02:52:29;7.85;;;6.53;;
64857;SDS011;51335;51.148;6.950;2023-06-10T02:53:00;9.27;;;6.85;;
64857;SDS011;51335;51.148;6.950;2023-06-10T02:53:30;10.20;;;7.10;;
64857;SDS011;51335;51.148;6.950;2023-06-10T02:54:01;8.48;;;6.60;;
64857;SDS011;51335;51.148;6.950;2023-06-10T02:54:31;8.75;;;6.85;;
64857;SDS011;51335;51.148;6.950;2023-06-10T02:55:01;8.15;;;6.68;;
64857;SDS011;51335;51.148;6.950;2023-06-10T02:55:32;9.70;;;6.60;;
64857;SDS011;51335;51.148;6.950;2023-06-10T02:56:02;8.60;;;6.50;;
64857;SDS011;51335;51.148;6.950;2023-06-10T02:56:32;9.02;;;6.45;;
64857;SDS011;51335;51.148;6.950;2023-06-10T02:57:03;7.40;;;6.53;;
64857;SDS011;51335;51.148;6.950;2023-06-10T02:57:33;8.65;;;6.63;;
64857;SDS011;51335;51.148;6.950;2023-06-10T02:58:03;7.43;;;6.30;;
64857;SDS011;51335;51.148;6.950;2023-06-10T02:58:34;8.90;;;6.60;;
64857;SDS011;51335;51.148;6.950;2023-06-10T02:59:04;10.80;;;6.80;;
64857;SDS011;51335;51.148;6.950;2023-06-10T02:59:34;7.43;;;6.28;;
64857;SDS011;51335;51.148;6.950;2023-06-10T03:00:04;10.10;;;7.10;;
64857;SDS011;51335;51.148;6.950;2023-06-10T03:00:35;8.52;;;6.55;;
64857;SDS011;51335;51.148;6.950;2023-06-10T03:01:06;8.25;;;7.10;;
64857;SDS011;51335;51.148;6.950;2023-06-10T03:01:36;8.23;;;6.75;;
64857;SDS011;51335;51.148;6.950;2023-06-10T03:02:06;10.02;;;7.32;;
64857;SDS011;51335;51.148;6.950;2023-06-10T03:02:37;7.85;;;6.53;;
64857;SDS011;51335;51.148;6.950;2023-06-10T03:03:07;9.65;;;6.70;;
64857;SDS011;51335;51.148;6.950;2023-06-10T03:03:37;8.43;;;6.80;;
64857;SDS011;51335;51.148;6.950;2023-06-10T03:04:08;7.95;;;6.57;;
64857;SDS011;51335;51.148;6.950;2023-06-10T03:04:38;8.57;;;6.43;;
64857;SDS011;51335;51.148;6.950;2023-06-10T03:05:08;8.18;;;6.60;;
64857;SDS011;51335;51.148;6.950;2023-06-10T03:05:38;7.43;;;6.68;;
64857;SDS011;51335;51.148;6.950;2023-06-10T03:06:12;9.35;;;7.10;;
64857;SDS011;51335;51.148;6.950;2023-06-10T03:06:43;7.65;;;6.85;;
64857;SDS011;51335;51.148;6.950;2023-06-10T03:07:14;8.15;;;7.00;;
64857;SDS011;51335;51.148;6.950;2023-06-10T03:07:44;8.98;;;7.35;;
64857;SDS011;51335;51.148;6.950;2023-06-10T03:08:14;7.55;;;6.72;;
64857;SDS011;51335;51.148;6.950;2023-06-10T03:08:44;7.90;;;6.50;;
64857;SDS011;51335;51.148;6.950;2023-06-10T03:09:14;8.60;;;6.45;;
64857;SDS011;51335;51.148;6.950;2023-06-10T03:09:45;8.30;;;7.07;;
64857;SDS011;51335;51.148;6.950;2023-06-10T03:10:15;8.30;;;6.72;;
64857;SDS011;51335;51.148;6.950;2023-06-10T03:10:45;9.18;;;6.60;;
64857;SDS011;51335;51.148;6.950;2023-06-10T03:11:16;9.52;;;7.25;;